createdAt,value
2018-10-19T00:00:11.174Z,13.40
2018-10-19T00:02:39.238Z,13.40
2018-10-19T00:05:07.386Z,13.40
2018-10-19T00:07:35.425Z,13.40
2018-10-19T00:10:03.634Z,13.40
2018-10-19T00:12:31.654Z,13.40
2018-10-19T00:14:59.705Z,13.40
2018-10-19T00:17:27.757Z,13.40
2018-10-19T00:19:55.809Z,13.40
2018-10-19T00:22:23.861Z,13.40
2018-10-19T00:24:51.903Z,13.40
2018-10-19T00:27:19.937Z,13.40
2018-10-19T00:29:47.962Z,13.40
2018-10-19T00:32:16.016Z,13.30
2018-10-19T00:34:44.041Z,13.30
2018-10-19T00:37:12.070Z,13.30
2018-10-19T00:39:40.117Z,13.30
2018-10-19T00:42:08.153Z,13.20
2018-10-19T00:44:36.208Z,13.30
2018-10-19T00:47:04.522Z,13.30
2018-10-19T00:49:32.510Z,13.20
2018-10-19T00:52:00.549Z,13.20
2018-10-19T00:54:28.602Z,13.30
2018-10-19T00:56:56.694Z,13.20
2018-10-19T00:59:24.678Z,13.20
2018-10-19T01:01:52.697Z,13.20
2018-10-19T01:04:20.769Z,13.20
2018-10-19T01:06:48.819Z,13.20
2018-10-19T01:09:16.877Z,13.20
2018-10-19T01:11:44.923Z,13.20
2018-10-19T01:14:12.986Z,13.20
2018-10-19T01:16:41.037Z,13.10
2018-10-19T01:19:09.077Z,13.10
2018-10-19T01:21:37.149Z,13.10
2018-10-19T01:24:05.247Z,13.00
2018-10-19T01:26:33.289Z,13.00
2018-10-19T01:29:01.366Z,13.00
2018-10-19T01:31:29.371Z,13.00
2018-10-19T01:33:57.422Z,12.90
2018-10-19T01:36:26.471Z,12.90
2018-10-19T01:38:54.594Z,12.90
2018-10-19T01:41:22.592Z,12.90
2018-10-19T01:43:50.673Z,12.90
2018-10-19T01:46:18.721Z,12.90
2018-10-19T01:48:46.766Z,12.90
2018-10-19T01:51:14.859Z,12.80
2018-10-19T01:53:43.389Z,12.70
2018-10-19T01:56:11.446Z,12.70
2018-10-19T01:58:39.481Z,12.70
2018-10-19T02:01:07.525Z,12.60
2018-10-19T02:03:35.580Z,12.60
2018-10-19T02:06:03.624Z,12.70
2018-10-19T02:08:31.702Z,12.70
2018-10-19T02:10:59.791Z,12.70
2018-10-19T02:13:27.796Z,12.60
2018-10-19T02:15:55.852Z,12.60
2018-10-19T02:18:23.949Z,12.60
2018-10-19T02:20:52.056Z,12.60
2018-10-19T02:23:20.019Z,12.60
2018-10-19T02:25:48.091Z,12.60
2018-10-19T02:28:16.146Z,12.60
2018-10-19T02:30:44.208Z,12.60
2018-10-19T02:33:12.699Z,12.60
2018-10-19T02:35:40.704Z,12.70
2018-10-19T02:38:08.744Z,12.60
2018-10-19T02:40:36.812Z,12.60
2018-10-19T02:43:05.266Z,12.50
2018-10-19T02:45:33.335Z,12.60
2018-10-19T02:48:01.839Z,12.50
2018-10-19T02:50:29.900Z,12.60
2018-10-19T02:52:58.027Z,12.60
2018-10-19T02:55:26.015Z,12.60
2018-10-19T02:57:54.048Z,12.60
2018-10-19T03:00:22.129Z,12.60
2018-10-19T03:02:50.178Z,12.60
2018-10-19T03:05:18.310Z,12.60
2018-10-19T03:07:49.961Z,12.60
2018-10-19T03:10:18.029Z,12.60
2018-10-19T03:12:46.112Z,12.60
2018-10-19T03:15:14.210Z,12.60
2018-10-19T03:17:42.234Z,12.60
2018-10-19T03:20:10.308Z,12.50
2018-10-19T03:22:38.336Z,12.50
2018-10-19T03:25:06.456Z,12.50
2018-10-19T03:27:34.546Z,12.50
2018-10-19T03:30:02.638Z,12.50
2018-10-19T03:32:30.670Z,12.40
2018-10-19T03:34:58.819Z,12.40
2018-10-19T03:37:26.853Z,12.40
2018-10-19T03:39:54.898Z,12.40
2018-10-19T03:42:22.990Z,12.30
2018-10-19T03:44:51.029Z,12.40
2018-10-19T03:47:19.241Z,12.40
2018-10-19T03:49:47.139Z,12.30
2018-10-19T03:52:15.197Z,12.30
2018-10-19T03:54:43.237Z,12.30
2018-10-19T03:57:11.372Z,12.30
2018-10-19T03:59:39.322Z,12.40
2018-10-19T04:02:07.400Z,12.40
2018-10-19T04:04:35.568Z,12.30
2018-10-19T04:07:03.707Z,12.30
2018-10-19T04:09:31.764Z,12.30
2018-10-19T04:11:59.821Z,12.30
2018-10-19T04:14:27.893Z,12.30
2018-10-19T04:16:56.068Z,12.30
2018-10-19T04:19:24.259Z,12.30
2018-10-19T04:21:52.534Z,12.30
2018-10-19T04:24:20.584Z,12.30
2018-10-19T04:26:48.645Z,12.30
2018-10-19T04:29:16.759Z,12.30
2018-10-19T04:31:44.909Z,12.30
2018-10-19T04:34:13.007Z,12.30
2018-10-19T04:36:41.048Z,12.30
2018-10-19T04:39:09.180Z,12.30
2018-10-19T04:41:38.196Z,12.30
2018-10-19T04:44:06.184Z,12.30
2018-10-19T04:46:34.218Z,12.30
2018-10-19T04:49:02.413Z,12.30
2018-10-19T04:51:30.457Z,12.20
2018-10-19T04:53:58.520Z,12.20
2018-10-19T04:56:26.549Z,12.20
2018-10-19T04:58:54.613Z,12.20
2018-10-19T05:01:22.712Z,12.20
2018-10-19T05:03:50.807Z,12.20
2018-10-19T05:06:18.873Z,12.20
2018-10-19T05:08:46.944Z,12.20
2018-10-19T05:11:14.993Z,12.20
2018-10-19T05:13:43.083Z,12.10
2018-10-19T05:16:11.203Z,12.10
2018-10-19T05:18:39.480Z,12.10
2018-10-19T05:21:07.573Z,12.10
2018-10-19T05:23:35.658Z,12.10
2018-10-19T05:26:04.223Z,12.00
2018-10-19T05:28:32.223Z,12.00
2018-10-19T05:31:00.417Z,12.00
2018-10-19T05:33:28.465Z,12.00
2018-10-19T05:35:56.522Z,12.00
2018-10-19T05:38:24.574Z,12.00
2018-10-19T05:40:52.647Z,12.00
2018-10-19T05:43:20.698Z,12.00
2018-10-19T05:45:48.740Z,12.00
2018-10-19T05:48:16.768Z,12.00
2018-10-19T05:50:44.892Z,11.90
2018-10-19T05:53:13.049Z,11.90
2018-10-19T05:55:41.224Z,11.90
2018-10-19T05:58:09.418Z,11.80
2018-10-19T06:00:37.750Z,11.90
2018-10-19T06:03:05.852Z,11.80
2018-10-19T06:05:33.881Z,11.80
2018-10-19T06:08:02.031Z,11.80
2018-10-19T06:10:30.033Z,11.80
2018-10-19T06:12:58.057Z,11.80
2018-10-19T06:15:26.107Z,11.80
2018-10-19T06:17:54.158Z,11.70
2018-10-19T06:20:22.198Z,12.00
2018-10-19T06:22:50.258Z,12.30
2018-10-19T06:25:20.296Z,12.40
2018-10-19T06:27:50.687Z,12.60
2018-10-19T06:30:18.754Z,12.70
2018-10-19T06:32:46.843Z,12.70
2018-10-19T06:35:15.148Z,12.80
2018-10-19T06:37:43.136Z,12.60
2018-10-19T06:40:11.190Z,12.50
2018-10-19T06:42:39.230Z,12.30
2018-10-19T06:45:07.395Z,12.20
2018-10-19T06:47:35.458Z,12.10
2018-10-19T06:50:05.316Z,12.10
2018-10-19T06:52:33.326Z,12.20
2018-10-19T06:55:01.383Z,12.10
2018-10-19T06:57:29.444Z,12.00
2018-10-19T06:59:57.472Z,12.00
2018-10-19T07:02:25.547Z,12.10
2018-10-19T07:04:53.656Z,12.10
2018-10-19T07:07:21.699Z,12.20
2018-10-19T07:09:49.746Z,12.30
2018-10-19T07:12:17.859Z,12.30
2018-10-19T07:14:45.897Z,12.40
2018-10-19T07:17:14.024Z,12.40
2018-10-19T07:19:42.002Z,12.50
2018-10-19T07:22:10.052Z,12.50
2018-10-19T07:24:38.105Z,12.50
2018-10-19T07:27:06.170Z,12.60
2018-10-19T07:29:34.293Z,12.50
2018-10-19T07:32:02.338Z,12.50
2018-10-19T07:34:30.352Z,12.50
2018-10-19T07:36:58.406Z,12.60
2018-10-19T07:39:26.452Z,12.60
2018-10-19T07:41:54.533Z,12.60
2018-10-19T07:44:22.675Z,12.40
2018-10-19T07:46:50.762Z,12.30
2018-10-19T07:49:18.850Z,12.30
2018-10-19T07:51:46.878Z,12.30
2018-10-19T07:54:15.003Z,12.30
2018-10-19T07:56:42.996Z,12.30
2018-10-19T07:59:11.124Z,12.30
2018-10-19T08:01:39.161Z,12.30
2018-10-19T08:04:07.268Z,12.30
2018-10-19T08:06:35.369Z,12.30
2018-10-19T08:09:07.023Z,12.30
2018-10-19T08:11:35.201Z,12.40
2018-10-19T08:14:03.432Z,12.40
2018-10-19T08:16:31.505Z,12.40
2018-10-19T08:18:59.573Z,12.40
2018-10-19T08:21:27.619Z,12.40
2018-10-19T08:23:55.689Z,12.40
2018-10-19T08:26:23.753Z,12.40
2018-10-19T08:28:51.841Z,12.40
2018-10-19T08:31:19.923Z,12.40
2018-10-19T08:33:48.026Z,12.50
2018-10-19T08:36:16.097Z,12.50
2018-10-19T08:38:44.204Z,12.50
2018-10-19T08:41:13.027Z,12.50
2018-10-19T08:43:40.979Z,12.60
2018-10-19T08:46:09.049Z,12.60
2018-10-19T08:48:37.118Z,12.70
2018-10-19T08:51:05.304Z,12.80
2018-10-19T08:53:33.567Z,12.80
2018-10-19T08:56:01.555Z,12.80
2018-10-19T08:58:29.631Z,12.90
2018-10-19T09:00:57.724Z,12.90
2018-10-19T09:03:25.798Z,13.00
2018-10-19T09:05:53.887Z,13.00
2018-10-19T09:08:21.997Z,13.10
2018-10-19T09:10:50.106Z,13.10
2018-10-19T09:13:18.117Z,13.20
2018-10-19T09:15:46.188Z,13.30
2018-10-19T09:18:14.302Z,13.30
2018-10-19T09:20:42.333Z,13.30
2018-10-19T09:23:10.436Z,13.40
2018-10-19T09:25:39.374Z,13.40
2018-10-19T09:28:07.474Z,13.40
2018-10-19T09:30:35.538Z,13.50
2018-10-19T09:33:03.666Z,13.50
2018-10-19T09:35:31.791Z,13.50
2018-10-19T09:37:59.778Z,13.60
2018-10-19T09:40:27.898Z,13.70
2018-10-19T09:42:56.061Z,13.80
2018-10-19T09:45:24.102Z,13.90
2018-10-19T09:47:52.188Z,13.90
2018-10-19T09:50:20.284Z,13.80
2018-10-19T09:52:48.366Z,13.90
2018-10-19T09:55:16.513Z,13.90
2018-10-19T09:57:44.560Z,14.00
2018-10-19T10:00:12.656Z,14.00
2018-10-19T10:02:40.773Z,14.10
2018-10-19T10:05:08.960Z,14.20
2018-10-19T10:07:37.066Z,14.30
2018-10-19T10:10:05.591Z,14.40
2018-10-19T10:12:33.708Z,14.40
2018-10-19T10:15:02.785Z,14.50
2018-10-19T10:17:30.704Z,14.50
2018-10-19T10:19:58.805Z,14.60
2018-10-19T10:22:26.941Z,14.70
2018-10-19T10:24:55.132Z,14.70
2018-10-19T10:27:23.118Z,14.70
2018-10-19T10:29:51.235Z,14.70
2018-10-19T10:32:19.402Z,14.80
2018-10-19T10:34:47.409Z,14.90
2018-10-19T10:37:15.512Z,14.90
2018-10-19T10:39:43.914Z,15.10
2018-10-19T10:42:12.001Z,15.10
2018-10-19T10:44:40.097Z,15.20
2018-10-19T10:47:08.313Z,15.20
2018-10-19T10:49:36.396Z,15.30
2018-10-19T10:52:05.065Z,15.40
2018-10-19T10:54:33.174Z,15.40
2018-10-19T10:57:01.293Z,15.50
2018-10-19T10:59:29.391Z,15.60
2018-10-19T11:01:57.503Z,15.70
2018-10-19T11:04:25.570Z,15.80
2018-10-19T11:06:53.715Z,15.90
2018-10-19T11:09:21.842Z,15.90
2018-10-19T11:11:49.987Z,15.90
2018-10-19T11:14:18.091Z,16.00
2018-10-19T11:16:46.202Z,15.90
2018-10-19T11:19:14.418Z,16.00
2018-10-19T11:21:42.532Z,16.00
2018-10-19T11:24:10.892Z,16.00
2018-10-19T11:26:38.845Z,16.00
2018-10-19T11:29:06.901Z,16.10
2018-10-19T11:31:35.011Z,16.20
2018-10-19T11:34:03.107Z,16.30
2018-10-19T11:36:31.168Z,16.30
2018-10-19T11:38:59.438Z,16.50
2018-10-19T11:41:27.511Z,16.60
2018-10-19T11:43:55.626Z,16.80
2018-10-19T11:46:23.738Z,16.80
2018-10-19T11:48:51.831Z,16.80
2018-10-19T11:51:19.917Z,16.80
2018-10-19T11:53:48.001Z,16.80
2018-10-19T11:56:16.122Z,16.90
2018-10-19T11:58:44.261Z,17.00
2018-10-19T12:01:12.379Z,17.00
2018-10-19T12:03:40.430Z,17.10
2018-10-19T12:06:08.535Z,17.10
2018-10-19T12:08:36.655Z,17.10
2018-10-19T12:11:05.035Z,17.30
2018-10-19T12:16:00.954Z,17.50
2018-10-19T12:18:29.021Z,17.50
2018-10-19T12:20:57.163Z,17.50
2018-10-19T12:23:25.198Z,17.60
2018-10-19T12:25:53.269Z,17.70
2018-10-19T12:28:21.355Z,17.50
2018-10-19T12:30:49.526Z,17.40
2018-10-19T12:33:17.676Z,17.40
2018-10-19T12:35:45.686Z,17.40
2018-10-19T12:38:13.759Z,17.50
2018-10-19T12:40:41.885Z,17.60
2018-10-19T12:43:09.990Z,17.60
2018-10-19T12:46:46.453Z,17.60
2018-10-19T12:49:14.910Z,17.50
2018-10-19T12:51:42.986Z,17.60
2018-10-19T12:54:11.111Z,17.60
2018-10-19T12:56:39.196Z,17.80
2018-10-19T12:59:07.332Z,17.90
2018-10-19T13:01:35.441Z,17.90
2018-10-19T13:04:03.566Z,18.10
2018-10-19T13:06:31.694Z,18.10
2018-10-19T13:08:59.856Z,18.20
2018-10-19T13:11:27.991Z,18.40
2018-10-19T13:13:56.084Z,18.20
2018-10-19T13:16:24.233Z,18.20
2018-10-19T13:18:52.307Z,18.10
2018-10-19T13:21:20.652Z,18.10
2018-10-19T13:23:48.849Z,17.90
2018-10-19T13:26:17.437Z,17.70
2018-10-19T13:28:45.534Z,17.70
2018-10-19T13:31:13.631Z,17.40
2018-10-19T13:33:41.807Z,17.50
2018-10-19T13:36:09.980Z,17.50
2018-10-19T13:38:38.061Z,17.40
2018-10-19T13:41:06.197Z,17.30
2018-10-19T13:43:34.354Z,17.30
2018-10-19T13:46:02.463Z,17.40
2018-10-19T13:48:30.814Z,17.40
2018-10-19T13:50:59.357Z,17.50
2018-10-19T13:53:28.024Z,17.50
2018-10-19T13:55:56.119Z,17.60
2018-10-19T13:58:24.294Z,17.60
2018-10-19T14:00:52.479Z,17.70
2018-10-19T14:03:20.608Z,18.00
2018-10-19T14:05:48.759Z,18.20
2018-10-19T14:08:16.756Z,18.30
2018-10-19T14:10:44.839Z,18.40
2018-10-19T14:13:12.994Z,18.60
2018-10-19T14:15:41.097Z,18.90
2018-10-19T14:18:09.162Z,19.20
2018-10-19T14:20:37.227Z,19.20
2018-10-19T14:23:05.751Z,18.90
2018-10-19T14:25:33.820Z,18.70
2018-10-19T14:28:01.885Z,18.40
2018-10-19T14:30:29.999Z,18.20
2018-10-19T14:32:58.108Z,18.00
2018-10-19T14:35:26.126Z,17.70
2018-10-19T14:37:54.390Z,17.70
2018-10-19T14:40:22.474Z,17.70
2018-10-19T14:42:50.598Z,17.60
2018-10-19T14:45:18.671Z,17.70
2018-10-19T14:47:47.844Z,17.80
2018-10-19T14:50:15.943Z,17.90
2018-10-19T14:52:44.022Z,17.90
2018-10-19T14:55:12.532Z,17.80
2018-10-19T14:57:40.591Z,17.90
2018-10-19T15:00:09.700Z,17.90
2018-10-19T15:02:37.761Z,17.90
2018-10-19T15:05:06.112Z,17.80
2018-10-19T15:07:34.198Z,17.90
2018-10-19T15:10:02.380Z,17.90
2018-10-19T15:12:30.383Z,17.90
2018-10-19T15:14:58.553Z,18.10
2018-10-19T15:17:26.637Z,18.20
2018-10-19T15:19:54.702Z,18.20
2018-10-19T15:22:22.774Z,18.10
2018-10-19T15:24:50.866Z,18.00
2018-10-19T15:27:18.926Z,17.90
2018-10-19T15:29:47.129Z,17.90
2018-10-19T15:32:15.108Z,17.80
2018-10-19T15:34:43.162Z,17.80
2018-10-19T15:37:14.202Z,17.60
2018-10-19T15:39:42.632Z,17.70
2018-10-19T15:42:10.945Z,17.80
2018-10-19T15:44:39.333Z,17.80
2018-10-19T15:47:07.479Z,17.80
2018-10-19T15:49:35.573Z,18.00
2018-10-19T15:52:03.704Z,18.00
2018-10-19T15:54:31.810Z,18.10
2018-10-19T15:57:00.249Z,18.20
2018-10-19T15:59:28.209Z,18.20
2018-10-19T16:01:56.273Z,18.00
2018-10-19T16:04:24.338Z,17.80
2018-10-19T16:06:52.470Z,17.80
2018-10-19T16:09:20.588Z,17.80
2018-10-19T16:11:49.175Z,17.80
2018-10-19T16:14:17.786Z,17.80
2018-10-19T16:16:46.001Z,17.80
2018-10-19T16:19:14.319Z,17.90
2018-10-19T16:21:42.476Z,18.00
2018-10-19T16:24:10.956Z,17.80
2018-10-19T16:26:39.224Z,17.50
2018-10-19T16:29:07.511Z,17.30
2018-10-19T16:31:37.244Z,17.00
2018-10-19T16:34:05.608Z,16.80
2018-10-19T16:36:34.208Z,16.70
2018-10-19T16:39:02.787Z,16.50
2018-10-19T16:41:32.279Z,16.30
2018-10-19T16:44:00.763Z,16.20
2018-10-19T16:46:28.876Z,16.10
2018-10-19T16:48:57.691Z,16.00
2018-10-19T16:51:26.020Z,15.90
2018-10-19T16:53:54.248Z,15.80
2018-10-19T16:56:25.273Z,15.70
2018-10-19T16:58:54.161Z,15.60
2018-10-19T17:01:22.725Z,15.60
2018-10-19T17:03:52.491Z,15.50
2018-10-19T17:06:21.058Z,15.50
2018-10-19T17:08:49.505Z,15.40
2018-10-19T17:11:17.708Z,15.30
2018-10-19T17:13:45.855Z,15.20
2018-10-19T17:16:13.965Z,15.30
2018-10-19T17:18:42.073Z,15.20
2018-10-19T17:21:10.306Z,15.20
2018-10-19T17:23:38.418Z,15.20
2018-10-19T17:26:06.523Z,15.20
2018-10-19T17:28:34.633Z,15.10
2018-10-19T17:31:02.850Z,15.10
2018-10-19T17:33:31.099Z,15.00
2018-10-19T17:35:59.374Z,15.00
2018-10-19T17:38:27.453Z,15.00
2018-10-19T17:40:55.680Z,15.00
2018-10-19T17:43:23.854Z,15.00
2018-10-19T17:45:51.980Z,15.00
2018-10-19T17:48:20.159Z,15.10
2018-10-19T17:50:48.405Z,15.10
2018-10-19T17:53:16.555Z,15.00
2018-10-19T17:55:44.624Z,15.00
2018-10-19T17:58:12.927Z,14.90
2018-10-19T18:00:41.096Z,14.90
2018-10-19T18:03:09.132Z,14.80
2018-10-19T18:05:37.237Z,14.80
2018-10-19T18:08:05.361Z,14.80
2018-10-19T18:10:33.502Z,14.70
2018-10-19T18:13:01.635Z,14.70
2018-10-19T18:15:29.822Z,14.60
2018-10-19T18:17:57.883Z,14.60
2018-10-19T18:20:26.012Z,14.50
2018-10-19T18:22:54.896Z,14.50
2018-10-19T18:25:22.907Z,14.40
2018-10-19T18:27:51.046Z,14.40
2018-10-19T18:30:19.166Z,14.40
2018-10-19T18:32:47.294Z,14.30
2018-10-19T18:35:15.462Z,14.30
2018-10-19T18:37:43.612Z,14.30
2018-10-19T18:40:11.799Z,14.30
2018-10-19T18:42:39.950Z,14.20
2018-10-19T18:45:08.073Z,14.20
2018-10-19T18:47:36.197Z,14.20
2018-10-19T18:50:04.905Z,14.10
2018-10-19T18:52:33.043Z,14.10
2018-10-19T18:55:01.228Z,14.00
2018-10-19T18:57:29.368Z,14.00
2018-10-19T18:59:57.591Z,13.90
2018-10-19T19:02:25.810Z,13.90
2018-10-19T19:04:53.927Z,13.80
2018-10-19T19:07:22.567Z,13.80
2018-10-19T19:09:50.721Z,13.70
2018-10-19T19:12:18.917Z,13.70
2018-10-19T19:14:47.030Z,13.70
2018-10-19T19:17:15.285Z,13.60
2018-10-19T19:19:43.405Z,13.50
2018-10-19T19:22:11.554Z,13.50
2018-10-19T19:24:39.722Z,13.40
2018-10-19T19:27:07.845Z,13.40
2018-10-19T19:29:36.019Z,13.30
2018-10-19T19:32:04.267Z,13.20
2018-10-19T19:34:32.338Z,13.20
2018-10-19T19:37:00.506Z,13.10
2018-10-19T19:39:28.914Z,13.10
2018-10-19T19:41:57.009Z,13.00
2018-10-19T19:44:25.348Z,13.00
2018-10-19T19:46:53.617Z,13.00
2018-10-19T19:49:22.892Z,12.90
2018-10-19T19:51:50.935Z,12.90
2018-10-19T19:54:19.021Z,12.80
2018-10-19T19:56:47.167Z,12.70
2018-10-19T19:59:15.429Z,12.60
2018-10-19T20:01:43.483Z,12.60
2018-10-19T20:04:11.677Z,12.50
2018-10-19T20:06:39.808Z,12.40
2018-10-19T20:09:07.966Z,12.30
2018-10-19T20:11:36.088Z,12.30
2018-10-19T20:14:04.570Z,12.20
2018-10-19T20:16:32.658Z,12.20
2018-10-19T20:19:00.828Z,12.10
2018-10-19T20:21:28.928Z,12.10
2018-10-19T20:23:57.065Z,12.00
2018-10-19T20:26:25.324Z,12.00
2018-10-19T20:28:53.479Z,12.00
2018-10-19T20:31:21.532Z,12.00
2018-10-19T20:33:49.670Z,12.00
2018-10-19T20:36:17.804Z,12.00
2018-10-19T20:38:45.927Z,12.00
2018-10-19T20:41:14.045Z,12.00
2018-10-19T20:43:42.158Z,12.00
2018-10-19T20:46:10.307Z,11.90
2018-10-19T20:48:39.171Z,11.80
2018-10-19T20:51:07.443Z,11.80
2018-10-19T20:53:35.644Z,11.70
2018-10-19T20:56:03.866Z,11.70
2018-10-19T20:58:31.957Z,11.70
2018-10-19T21:01:00.054Z,11.70
2018-10-19T21:03:28.199Z,11.70
2018-10-19T21:05:56.357Z,11.70
2018-10-19T21:08:24.493Z,11.60
2018-10-19T21:10:52.610Z,11.60
2018-10-19T21:13:20.791Z,11.60
2018-10-19T21:15:48.927Z,11.60
2018-10-19T21:18:17.021Z,11.60
2018-10-19T21:20:45.611Z,11.50
2018-10-19T21:23:13.851Z,11.50
2018-10-19T21:25:41.823Z,11.50
2018-10-19T21:28:10.179Z,11.50
2018-10-19T21:30:38.317Z,11.50
2018-10-19T21:33:06.372Z,11.50
2018-10-19T21:35:34.597Z,11.40
2018-10-19T21:38:02.762Z,11.30
2018-10-19T21:40:31.696Z,11.30
2018-10-19T21:42:59.845Z,11.20
2018-10-19T21:45:28.396Z,11.20
2018-10-19T21:47:56.487Z,11.20
2018-10-19T21:50:24.558Z,11.10
2018-10-19T21:52:52.643Z,11.10
2018-10-19T21:55:20.798Z,11.10
2018-10-19T21:57:49.237Z,11.00
2018-10-19T22:00:17.392Z,11.00
2018-10-19T22:02:45.453Z,10.90
2018-10-19T22:05:13.645Z,10.90
2018-10-19T22:07:41.797Z,10.80
2018-10-19T22:10:09.831Z,10.70
2018-10-19T22:12:37.890Z,10.70
2018-10-19T22:15:06.561Z,10.70
2018-10-19T22:17:34.632Z,10.70
2018-10-19T22:20:02.776Z,10.60
2018-10-19T22:22:30.854Z,10.60
2018-10-19T22:24:58.951Z,10.60
2018-10-19T22:27:27.007Z,10.60
2018-10-19T22:29:55.073Z,10.50
2018-10-19T22:32:23.146Z,10.40
2018-10-19T22:34:51.226Z,10.40
2018-10-19T22:37:19.314Z,10.40
2018-10-19T22:39:47.378Z,10.30
2018-10-19T22:42:15.451Z,10.30
2018-10-19T22:44:43.537Z,10.30
2018-10-19T22:47:11.638Z,10.30
2018-10-19T22:49:39.673Z,10.20
2018-10-19T22:52:07.734Z,10.20
2018-10-19T22:54:35.805Z,10.20
2018-10-19T22:57:03.881Z,10.20
2018-10-19T22:59:31.945Z,10.20
2018-10-19T23:02:00.011Z,10.10
2018-10-19T23:04:28.077Z,10.10
2018-10-19T23:06:56.172Z,10.10
2018-10-19T23:09:24.237Z,10.00
2018-10-19T23:11:52.262Z,10.00
2018-10-19T23:14:20.292Z,10.00
2018-10-19T23:16:48.426Z,10.00
2018-10-19T23:19:16.537Z,10.00
2018-10-19T23:21:44.590Z,9.90
2018-10-19T23:24:12.654Z,9.90
2018-10-19T23:26:40.705Z,9.90
2018-10-19T23:29:08.811Z,9.80
2018-10-19T23:31:36.874Z,9.80
2018-10-19T23:34:04.926Z,9.80
2018-10-19T23:36:33.012Z,9.80
2018-10-19T23:39:01.076Z,9.80
2018-10-19T23:41:29.152Z,9.80
2018-10-19T23:43:57.221Z,9.80
2018-10-19T23:46:25.286Z,9.70
2018-10-19T23:48:53.370Z,9.70
2018-10-19T23:51:21.441Z,9.70
2018-10-19T23:53:49.465Z,9.70
2018-10-19T23:56:17.509Z,9.60
2018-10-19T23:58:45.534Z,9.60
